Sargeant, MN (55973)

1:21 PM CST on January 24, 2017 (GMT -0600)
Hayfield | | Change Station
Active Advisory: Winter Storm Warning

Elev 1316 ft 43.89 °N, 92.85 °W | Updated 10 seconds ago

Overcast
Overcast
30.0 °F
Feels Like 30 °F
N
1.0
Wind Variable Wind from NNE
Gusts 3.0 mph

Today
High -- | Low -- °F
--% Chance of Precip.
Yesterday
High -- | Low -- °F
Precip. -- in
Pressure 29.79 in
Visibility 5.0 miles
Clouds Overcast 800 ft
Windchill 30 °F
Dew Point 27 °F
Humidity 88%
Rainfall 0.00 in
Snow Depth Not available.
7:35 AM 5:11 PM
Waning Crescent, 10% visible
METAR KAUM 241916Z AUTO 09007KT 5SM BR OVC008 M01/M03 A2979 RMK AO2
Pressure 29.79 in
Visibility 5.0 miles
Clouds Overcast 800 ft
Windchill 30 °F
Dew Point 27 °F
Humidity 88%
Rainfall 0.00 in
Snow Depth Not available.
7:35 AM 5:11 PM
Waning Crescent, 10% visible
METAR KAUM 241916Z AUTO 09007KT 5SM BR OVC008 M01/M03 A2979 RMK AO2

Get Your Daily Forecast Email!

Thanks for signing up!

Be on the lookout for a verification email in your inbox.

You'll start receiving the daily forecast at 8 AM.

×

10-Day Weather Forecast

Almanac

Astronomy

Jan. 24, 2017 Rise Set
Actual Time
Civil Twilight
Nautical Twilight
Astronomical Twilight
Moon
Length of Visible Light
Length of Day
Tomorrow will be .
, % of the Moon is Illuminated

Today's Extremes

State Highs State Lows

Community

WunderPhotos

Upload Photos

1,962,540 photos uploaded!

WunderBlog® & News

Nearby

Air Quality

  Air Quality AQ Index Pollutant
Not available.

Snow Depth

Station Depth Elevation

Earthquake Activity

City Distance Mag. Time & Date
Minimum magnitude displayed is 2.5.

Coastal Water Temperatures

Place Temperature

Stations

Nearby Weather Stations

Station Location Temp. Windchill Dew Point Humidity Wind Precip. Elev Updated Type
                   

Watches & Warnings

Winter Storm Warning
Issued: 11:48 AM CST Jan. 24, 2017 – National Weather Service

... Winter Storm Warning remains in effect from 3 PM this
afternoon to 6 PM CST Wednesday...

* expect a wintry mix to develop around 3 PM and then diminish
around 6 PM Wednesday.

* The heaviest snowfall rates will occur between 6 PM this
evening and midnight Wednesday.

* Total snow accumulations of 6 to 9 inches and ice accumulations
of a glaze are expected.

* Look for significant reductions in visibility at times.

* Plan on difficult driving conditions.

Precautionary/preparedness actions...

A Winter Storm Warning means significant amounts of snow... sleet
and ice are expected. Strong winds are also possible. This will
make travel very hazardous or impossible. The latest Road
conditions for the state you are calling from can be obtained by
calling 5 1 1.